createdAt,value
2017-11-12T00:02:28.369Z,100329.81
2017-11-12T00:04:56.682Z,100329.61
2017-11-12T00:07:25.031Z,100321.70
2017-11-12T00:09:53.542Z,100323.94
2017-11-12T00:12:21.889Z,100318.87
2017-11-12T00:14:50.202Z,100312.44
2017-11-12T00:17:18.607Z,100312.09
2017-11-12T00:19:46.927Z,100311.85
2017-11-12T00:22:15.298Z,100302.61
2017-11-12T00:24:43.783Z,100302.58
2017-11-12T00:27:12.123Z,100299.13
2017-11-12T00:29:41.222Z,100300.20
2017-11-12T00:32:10.523Z,100298.34
2017-11-12T00:34:38.911Z,100294.37
2017-11-12T00:37:07.261Z,100289.91
2017-11-12T00:39:36.379Z,100280.55
2017-11-12T00:42:05.477Z,100280.44
2017-11-12T00:44:33.827Z,100279.14
2017-11-12T00:47:02.203Z,100283.81
2017-11-12T00:49:30.561Z,100279.77
2017-11-12T00:51:58.885Z,100291.89
2017-11-12T00:54:27.595Z,100292.18
2017-11-12T00:56:55.918Z,100292.97
2017-11-12T00:59:24.269Z,100285.07
2017-11-12T01:01:52.637Z,100287.14
2017-11-12T01:04:20.982Z,100283.58
2017-11-12T01:06:50.076Z,100290.02
2017-11-12T01:09:19.220Z,100295.66
2017-11-12T01:11:47.550Z,100295.13
2017-11-12T01:14:15.882Z,100294.77
2017-11-12T01:16:44.287Z,100295.27
2017-11-12T01:19:12.614Z,100296.84
2017-11-12T01:21:40.935Z,100297.20
2017-11-12T01:24:09.340Z,100304.31
2017-11-12T01:26:37.679Z,100299.32
2017-11-12T01:29:06.045Z,100301.70
2017-11-12T01:31:34.396Z,100295.51
2017-11-12T01:34:02.720Z,100294.10
2017-11-12T01:36:31.062Z,100300.50
2017-11-12T01:38:59.467Z,100306.88
2017-11-12T01:41:27.890Z,100292.02
2017-11-12T01:43:56.989Z,100297.81
2017-11-12T01:46:26.126Z,100290.28
2017-11-12T01:48:54.467Z,100285.41
2017-11-12T01:51:23.553Z,100293.09
2017-11-12T01:53:52.698Z,100286.34
2017-11-12T01:56:21.032Z,100280.52
2017-11-12T01:58:49.374Z,100292.06
2017-11-12T02:01:18.011Z,100277.97
2017-11-12T02:03:46.359Z,100284.19
2017-11-12T02:06:14.695Z,100274.22
2017-11-12T02:08:43.068Z,100274.95
2017-11-12T02:11:11.392Z,100276.11
2017-11-12T02:13:39.723Z,100274.87
2017-11-12T02:16:08.871Z,100278.74
2017-11-12T02:18:37.227Z,100271.16
2017-11-12T02:21:05.579Z,100271.69
2017-11-12T02:23:34.120Z,100275.00
2017-11-12T02:26:02.446Z,100272.22
2017-11-12T02:28:30.792Z,100269.30
2017-11-12T02:30:59.957Z,100268.42
2017-11-12T02:33:28.270Z,100267.98
2017-11-12T02:35:56.605Z,100267.84
2017-11-12T02:38:25.000Z,100263.21
2017-11-12T02:40:53.343Z,100265.48
2017-11-12T02:43:21.675Z,100275.27
2017-11-12T02:45:50.899Z,100273.67
2017-11-12T02:48:19.248Z,100277.20
2017-11-12T02:50:47.586Z,100279.73
2017-11-12T02:53:16.543Z,100283.47
2017-11-12T02:55:44.888Z,100272.25
2017-11-12T02:58:13.204Z,100268.35
2017-11-12T03:00:41.551Z,100264.60
2017-11-12T03:03:09.873Z,100269.34
2017-11-12T03:05:38.203Z,100268.44
2017-11-12T03:08:06.688Z,100261.58
2017-11-12T03:10:35.008Z,100261.09
2017-11-12T03:13:03.410Z,100269.01
2017-11-12T03:15:31.750Z,100264.34
2017-11-12T03:18:00.850Z,100266.09
2017-11-12T03:20:29.946Z,100263.56
2017-11-12T03:22:59.052Z,100261.72
2017-11-12T03:25:27.374Z,100265.74
2017-11-12T03:27:55.686Z,100255.73
2017-11-12T03:30:24.267Z,100263.20
2017-11-12T03:32:53.403Z,100268.66
2017-11-12T03:35:21.728Z,100259.47
2017-11-12T03:37:50.099Z,100257.26
2017-11-12T03:40:18.465Z,100247.59
2017-11-12T03:42:46.799Z,100248.64
2017-11-12T03:45:15.168Z,100246.16
2017-11-12T03:47:44.284Z,100234.66
2017-11-12T03:50:12.620Z,100233.11
2017-11-12T03:52:41.126Z,100227.19
2017-11-12T03:55:09.466Z,100223.45
2017-11-12T03:57:37.790Z,100222.19
2017-11-12T04:00:06.146Z,100223.52
2017-11-12T04:02:34.474Z,100224.23
2017-11-12T04:05:02.818Z,100229.81
2017-11-12T04:07:31.951Z,100225.01
2017-11-12T04:10:00.310Z,100215.12
2017-11-12T04:12:28.627Z,100215.12
2017-11-12T04:14:57.049Z,100216.37
2017-11-12T04:17:25.371Z,100211.44
2017-11-12T04:19:53.701Z,100206.23
2017-11-12T04:22:22.839Z,100208.14
2017-11-12T04:24:51.170Z,100199.52
2017-11-12T04:27:19.505Z,100191.83
2017-11-12T04:29:47.865Z,100199.09
2017-11-12T04:32:16.185Z,100204.45
2017-11-12T04:34:44.527Z,100203.62
2017-11-12T04:37:12.962Z,100207.77
2017-11-12T04:39:41.291Z,100204.96
2017-11-12T04:42:09.611Z,100191.97
2017-11-12T04:44:37.962Z,100195.56
2017-11-12T04:47:06.283Z,100185.05
2017-11-12T04:49:34.620Z,100182.02
2017-11-12T04:52:03.016Z,100192.53
2017-11-12T04:54:31.355Z,100188.66
2017-11-12T04:56:59.670Z,100190.98
2017-11-12T04:59:28.249Z,100189.29
2017-11-12T05:01:56.611Z,100192.25
2017-11-12T05:04:24.940Z,100192.05
2017-11-12T05:06:54.096Z,100183.15
2017-11-12T05:09:22.421Z,100181.87
2017-11-12T05:11:50.748Z,100180.53
2017-11-12T05:14:19.095Z,100177.36
2017-11-12T05:16:47.416Z,100166.56
2017-11-12T05:19:15.752Z,100168.39
2017-11-12T05:21:44.397Z,100164.58
2017-11-12T05:24:12.729Z,100160.77
2017-11-12T05:26:41.055Z,100165.16
2017-11-12T05:29:09.671Z,100159.57
2017-11-12T05:31:37.994Z,100161.97
2017-11-12T05:34:06.339Z,100151.39
2017-11-12T05:36:34.705Z,100151.67
2017-11-12T05:39:03.067Z,100151.39
2017-11-12T05:41:32.153Z,100147.98
2017-11-12T05:44:00.601Z,100149.33
2017-11-12T05:46:28.933Z,100148.20
2017-11-12T05:48:57.255Z,100142.91
2017-11-12T05:51:25.607Z,100141.08
2017-11-12T05:53:53.928Z,100138.27
2017-11-12T05:56:22.280Z,100130.36
2017-11-12T05:58:50.630Z,100131.89
2017-11-12T06:01:18.970Z,100121.89
2017-11-12T06:03:47.295Z,100129.79
2017-11-12T06:06:15.808Z,100127.73
2017-11-12T06:08:44.182Z,100134.58
2017-11-12T06:11:12.523Z,100130.50
2017-11-12T06:13:40.872Z,100127.68
2017-11-12T06:16:09.193Z,100122.71
2017-11-12T06:18:37.522Z,100121.18
2017-11-12T06:21:05.879Z,100120.67
2017-11-12T06:23:34.199Z,100117.69
2017-11-12T06:26:03.299Z,100115.85
2017-11-12T06:28:32.515Z,100120.69
2017-11-12T06:31:00.855Z,100122.27
2017-11-12T06:33:29.200Z,100117.66
2017-11-12T06:35:57.559Z,100120.39
2017-11-12T06:38:25.923Z,100114.52
2017-11-12T06:40:55.000Z,100111.30
2017-11-12T06:43:24.121Z,100111.36
2017-11-12T06:45:52.462Z,100105.02
2017-11-12T06:48:20.812Z,100098.60
2017-11-12T06:50:49.444Z,100097.75
2017-11-12T06:53:18.688Z,100091.19
2017-11-12T06:55:47.009Z,100089.55
2017-11-12T06:58:15.387Z,100088.66
2017-11-12T07:00:43.721Z,100094.03
2017-11-12T07:03:12.064Z,100081.05
2017-11-12T07:05:41.195Z,100080.55
2017-11-12T07:08:09.543Z,100070.11
2017-11-12T07:10:38.638Z,100070.45
2017-11-12T07:13:07.853Z,100072.25
2017-11-12T07:15:36.177Z,100072.16
2017-11-12T07:18:04.500Z,100074.59
2017-11-12T07:20:32.871Z,100072.15
2017-11-12T07:23:01.969Z,100081.62
2017-11-12T07:25:31.063Z,100076.81
2017-11-12T07:28:00.183Z,100076.28
2017-11-12T07:30:28.562Z,100075.94
2017-11-12T07:32:56.914Z,100071.17
2017-11-12T07:35:26.086Z,100074.25
2017-11-12T07:37:54.438Z,100072.05
2017-11-12T07:40:22.787Z,100067.95
2017-11-12T07:42:51.151Z,100070.31
2017-11-12T07:45:20.254Z,100065.44
2017-11-12T07:47:48.604Z,100067.34
2017-11-12T07:50:16.953Z,100064.75
2017-11-12T07:52:45.292Z,100069.08
2017-11-12T07:55:14.386Z,100066.09
2017-11-12T07:57:42.786Z,100057.56
2017-11-12T08:00:11.887Z,100064.77
2017-11-12T08:02:40.216Z,100061.48
2017-11-12T08:05:08.602Z,100055.10
2017-11-12T08:07:37.708Z,100051.16
2017-11-12T08:10:06.812Z,100050.27
2017-11-12T08:12:35.171Z,100042.06
2017-11-12T08:15:03.524Z,100040.91
2017-11-12T08:17:31.877Z,100048.55
2017-11-12T08:20:00.625Z,100044.23
2017-11-12T08:22:29.726Z,100038.28
2017-11-12T08:24:58.059Z,100043.16
2017-11-12T08:27:26.419Z,100034.98
2017-11-12T08:29:54.754Z,100035.93
2017-11-12T08:32:23.096Z,100024.06
2017-11-12T08:34:51.453Z,100027.64
2017-11-12T08:37:19.800Z,100030.75
2017-11-12T08:39:48.136Z,100024.86
2017-11-12T08:42:16.686Z,100017.52
2017-11-12T08:44:45.030Z,100008.67
2017-11-12T08:47:14.143Z,100010.24
2017-11-12T08:49:42.514Z,100018.41
2017-11-12T08:52:10.859Z,100017.09
2017-11-12T08:54:39.220Z,100015.05
2017-11-12T08:57:07.614Z,100019.06
2017-11-12T08:59:35.989Z,100019.36
2017-11-12T09:02:04.338Z,100019.13
2017-11-12T09:04:32.899Z,100021.02
2017-11-12T09:07:01.407Z,100009.48
2017-11-12T09:09:29.768Z,100003.83
2017-11-12T09:11:58.144Z,99998.63
2017-11-12T09:14:26.492Z,99998.08
2017-11-12T09:16:55.647Z,99995.70
2017-11-12T09:19:24.020Z,99989.38
2017-11-12T09:21:52.361Z,99988.52
2017-11-12T09:24:20.745Z,99990.45
2017-11-12T09:26:49.308Z,99987.09
2017-11-12T09:29:17.626Z,99987.57
2017-11-12T09:31:45.971Z,99979.90
2017-11-12T09:34:14.349Z,99975.36
2017-11-12T09:36:43.467Z,99971.27
2017-11-12T09:39:11.812Z,99966.12
2017-11-12T09:41:40.177Z,99967.51
2017-11-12T09:44:08.515Z,99961.56
2017-11-12T09:46:36.852Z,99956.97
2017-11-12T09:49:05.283Z,99958.59
2017-11-12T09:51:33.610Z,99955.64
2017-11-12T09:54:01.996Z,99952.02
2017-11-12T09:56:31.151Z,99945.34
2017-11-12T09:58:59.486Z,99942.98
2017-11-12T10:01:27.799Z,99941.27
2017-11-12T10:03:56.150Z,99943.70
2017-11-12T10:06:24.497Z,99936.11
2017-11-12T10:08:52.824Z,99925.23
2017-11-12T10:11:21.259Z,99918.59
2017-11-12T10:13:49.598Z,99920.84
2017-11-12T10:16:17.981Z,99918.05
2017-11-12T10:18:46.348Z,99910.52
2017-11-12T10:21:15.617Z,99899.08
2017-11-12T10:23:43.970Z,99897.97
2017-11-12T10:26:12.350Z,99889.15
2017-11-12T10:28:41.447Z,99882.83
2017-11-12T10:31:09.786Z,99888.45
2017-11-12T10:33:38.231Z,99874.67
2017-11-12T10:36:06.583Z,99872.33
2017-11-12T10:38:34.936Z,99864.59
2017-11-12T10:41:03.285Z,99864.15
2017-11-12T10:43:31.647Z,99860.91
2017-11-12T10:46:00.773Z,99847.63
2017-11-12T10:48:29.167Z,99853.76
2017-11-12T10:50:57.543Z,99845.95
2017-11-12T10:53:25.925Z,99846.02
2017-11-12T10:55:54.511Z,99845.02
2017-11-12T10:58:22.833Z,99834.11
2017-11-12T11:00:51.169Z,99831.21
2017-11-12T11:03:19.539Z,99832.00
2017-11-12T11:05:48.673Z,99828.23
2017-11-12T11:08:17.092Z,99822.56
2017-11-12T11:10:45.473Z,99822.44
2017-11-12T11:13:13.850Z,99818.22
2017-11-12T11:15:43.004Z,99809.13
2017-11-12T11:18:11.437Z,99810.91
2017-11-12T11:20:39.771Z,99810.69
2017-11-12T11:23:08.157Z,99806.08
2017-11-12T11:25:37.339Z,99798.95
2017-11-12T11:28:05.719Z,99790.88
2017-11-12T11:30:34.143Z,99791.03
2017-11-12T11:33:02.524Z,99776.62
2017-11-12T11:35:30.874Z,99780.48
2017-11-12T11:37:59.510Z,99769.08
2017-11-12T11:40:27.972Z,99764.98
2017-11-12T11:42:56.334Z,99756.91
2017-11-12T11:45:25.433Z,99761.98
2017-11-12T11:47:53.843Z,99770.88
2017-11-12T11:50:22.235Z,99778.36
2017-11-12T11:52:50.599Z,99781.11
2017-11-12T11:55:19.000Z,99769.00
2017-11-12T11:57:47.468Z,99774.84
2017-11-12T12:00:15.821Z,99780.24
2017-11-12T12:02:45.166Z,99777.67
2017-11-12T12:05:13.506Z,99783.38
2017-11-12T12:07:41.860Z,99782.60
2017-11-12T12:10:11.323Z,99783.81
2017-11-12T12:12:39.686Z,99777.71
2017-11-12T12:15:08.094Z,99774.39
2017-11-12T12:17:36.473Z,99770.91
2017-11-12T12:20:04.827Z,99765.97
2017-11-12T12:22:33.210Z,99766.16
2017-11-12T12:25:01.660Z,99762.62
2017-11-12T12:27:30.049Z,99749.92
2017-11-12T12:29:58.409Z,99749.98
2017-11-12T12:32:26.786Z,99746.90
2017-11-12T12:34:55.135Z,99752.61
2017-11-12T12:37:23.457Z,99761.09
2017-11-12T12:39:51.831Z,99758.42
2017-11-12T12:42:20.192Z,99772.60
2017-11-12T12:44:49.302Z,99787.15
2017-11-12T12:47:18.503Z,99792.69
2017-11-12T12:49:46.846Z,99797.11
2017-11-12T12:52:15.198Z,99801.64
2017-11-12T12:54:43.570Z,99805.87
2017-11-12T12:57:11.903Z,99795.11
2017-11-12T12:59:41.006Z,99785.09
2017-11-12T13:02:10.863Z,99772.95
2017-11-12T13:04:39.205Z,99777.25
2017-11-12T13:07:07.572Z,99773.62
2017-11-12T13:09:36.327Z,99771.74
2017-11-12T13:12:04.683Z,99775.75
2017-11-12T13:14:33.819Z,99770.52
2017-11-12T13:17:02.202Z,99773.86
2017-11-12T13:19:30.573Z,99773.50
2017-11-12T13:21:58.932Z,99768.50
2017-11-12T13:24:27.407Z,99763.70
2017-11-12T13:26:55.745Z,99771.67
2017-11-12T13:29:24.147Z,99764.95
2017-11-12T13:31:52.826Z,99769.11
2017-11-12T13:34:21.207Z,99760.38
2017-11-12T13:36:49.544Z,99760.57
2017-11-12T13:39:17.911Z,99759.68
2017-11-12T13:41:46.254Z,99757.97
2017-11-12T13:44:14.595Z,99759.20
2017-11-12T13:46:43.740Z,99746.41
2017-11-12T13:49:12.109Z,99744.97
2017-11-12T13:53:15.501Z,99737.29
2017-11-12T13:55:43.846Z,99741.70
2017-11-12T13:58:12.196Z,99735.02
2017-11-12T14:00:40.596Z,99722.42
2017-11-12T14:03:08.942Z,99731.88
2017-11-12T14:05:37.286Z,99734.67
2017-11-12T14:08:05.669Z,99739.46
2017-11-12T14:10:34.093Z,99734.52
2017-11-12T14:13:02.458Z,99728.22
2017-11-12T14:15:31.247Z,99724.91
2017-11-12T14:17:59.599Z,99721.55
2017-11-12T14:20:28.006Z,99721.66
2017-11-12T14:22:56.386Z,99712.89
2017-11-12T14:25:24.760Z,99726.33
2017-11-12T14:27:53.122Z,99728.61
2017-11-12T14:30:21.492Z,99725.39
2017-11-12T14:32:49.892Z,99734.19
2017-11-12T14:35:18.265Z,99730.12
2017-11-12T14:37:46.787Z,99741.20
2017-11-12T14:40:15.124Z,99743.16
2017-11-12T14:42:43.475Z,99748.25
2017-11-12T14:45:11.869Z,99745.38
2017-11-12T14:47:40.207Z,99754.08
2017-11-12T14:50:08.669Z,99748.96
2017-11-12T14:52:37.058Z,99755.06
2017-11-12T14:55:05.413Z,99762.38
2017-11-12T14:57:33.772Z,99764.59
2017-11-12T15:00:02.411Z,99767.34
2017-11-12T15:02:30.776Z,99767.15
2017-11-12T15:04:59.132Z,99768.94
2017-11-12T15:07:27.521Z,99779.53
2017-11-12T15:09:55.912Z,99782.39
2017-11-12T15:12:24.270Z,99788.73
2017-11-12T15:14:52.633Z,99790.14
2017-11-12T15:17:21.011Z,99784.49
2017-11-12T15:19:49.357Z,99789.69
2017-11-12T15:22:18.179Z,99788.78
2017-11-12T15:24:46.550Z,99785.42
2017-11-12T15:27:14.902Z,99790.62
2017-11-12T15:29:43.300Z,99790.57
2017-11-12T15:32:12.417Z,99788.36
2017-11-12T15:34:40.786Z,99789.38
2017-11-12T15:37:09.167Z,99791.20
2017-11-12T15:39:37.536Z,99789.25
2017-11-12T15:42:05.893Z,99798.19
2017-11-12T15:44:34.340Z,99795.25
2017-11-12T15:47:02.701Z,99791.12
2017-11-12T15:49:31.054Z,99795.55
2017-11-12T15:52:00.213Z,99794.81
2017-11-12T15:54:28.586Z,99793.52
2017-11-12T15:56:56.907Z,99790.13
2017-11-12T15:59:26.051Z,99791.81
2017-11-12T16:01:54.377Z,99798.81
2017-11-12T16:04:23.480Z,99797.08
2017-11-12T16:06:52.769Z,99799.86
2017-11-12T16:09:21.117Z,99794.26
2017-11-12T16:11:49.722Z,99795.30
2017-11-12T16:14:18.499Z,99792.97
2017-11-12T16:16:46.908Z,99791.12
2017-11-12T16:19:15.270Z,99794.56
2017-11-12T16:21:43.752Z,99796.15
2017-11-12T16:24:12.111Z,99792.84
2017-11-12T16:26:40.515Z,99800.94
2017-11-12T16:29:09.463Z,99796.08
2017-11-12T16:31:37.833Z,99801.09
2017-11-12T16:34:06.168Z,99800.16
2017-11-12T16:36:34.579Z,99800.67
2017-11-12T16:39:02.930Z,99808.88
2017-11-12T16:41:32.591Z,99805.84
2017-11-12T16:44:01.004Z,99807.99
2017-11-12T16:46:29.379Z,99804.04
2017-11-12T16:48:57.768Z,99804.72
2017-11-12T16:51:26.518Z,99805.51
2017-11-12T16:53:54.906Z,99800.25
2017-11-12T16:56:23.266Z,99801.88
2017-11-12T16:58:51.696Z,99809.42
2017-11-12T17:01:20.840Z,99809.94
2017-11-12T17:03:49.258Z,99808.14
2017-11-12T17:06:17.662Z,99813.69
2017-11-12T17:08:46.061Z,99811.45
2017-11-12T17:11:14.502Z,99819.43
2017-11-12T17:13:43.061Z,99829.36
2017-11-12T17:16:11.421Z,99828.63
2017-11-12T17:18:39.802Z,99834.91
2017-11-12T17:21:08.177Z,99841.39
2017-11-12T17:23:36.556Z,99844.69
2017-11-12T17:26:05.714Z,99849.39
2017-11-12T17:28:34.382Z,99854.23
2017-11-12T17:31:02.778Z,99854.24
2017-11-12T17:33:31.121Z,99861.48
2017-11-12T17:38:29.941Z,99873.44
2017-11-12T17:40:58.285Z,99868.12
2017-11-12T17:43:26.662Z,99864.20
2017-11-12T17:45:55.039Z,99867.82
2017-11-12T17:48:23.406Z,99873.74
2017-11-12T17:50:52.511Z,99877.91
2017-11-12T17:53:20.899Z,99877.98
2017-11-12T17:55:49.311Z,99889.99
2017-11-12T17:58:17.707Z,99887.67
2017-11-12T18:00:46.703Z,99894.20
2017-11-12T18:03:15.056Z,99889.67
2017-11-12T18:05:43.426Z,99892.58
2017-11-12T18:08:11.853Z,99898.20
2017-11-12T18:10:40.224Z,99903.34
2017-11-12T18:13:08.604Z,99905.74
2017-11-12T18:15:36.980Z,99906.25
2017-11-12T18:18:05.345Z,99919.27
2017-11-12T18:20:33.694Z,99924.91
2017-11-12T18:23:02.696Z,99925.39
2017-11-12T18:25:31.057Z,99923.11
2017-11-12T18:27:59.426Z,99937.20
2017-11-12T18:30:27.887Z,99937.91
2017-11-12T18:32:57.004Z,99945.95
2017-11-12T18:35:25.372Z,99940.87
2017-11-12T18:37:55.019Z,99948.09
2017-11-12T18:40:23.367Z,99950.38
2017-11-12T18:42:51.753Z,99954.77
2017-11-12T18:45:20.423Z,99954.68
2017-11-12T18:47:49.563Z,99955.41
2017-11-12T18:50:17.900Z,99954.72
2017-11-12T18:52:47.046Z,99959.61
2017-11-12T18:55:20.812Z,99961.88
2017-11-12T18:57:53.051Z,99962.66
2017-11-12T19:00:26.933Z,99966.06
2017-11-12T19:03:03.926Z,99963.81
2017-11-12T19:05:34.200Z,99969.55
2017-11-12T19:08:02.554Z,99986.17
2017-11-12T19:10:31.469Z,99975.30
2017-11-12T19:12:59.830Z,99986.19
2017-11-12T19:15:28.162Z,99986.66
2017-11-12T19:18:12.075Z,99990.88
2017-11-12T19:24:00.711Z,99994.33
2017-11-12T19:29:35.735Z,100000.69
2017-11-12T19:32:04.076Z,100001.39
2017-11-12T19:34:32.424Z,99999.34
2017-11-12T19:37:00.858Z,100010.73
2017-11-12T19:39:29.240Z,100020.25
2017-11-12T19:41:57.607Z,100022.30
2017-11-12T19:44:26.403Z,100027.53
2017-11-12T19:46:54.766Z,100035.72
2017-11-12T19:49:23.137Z,100041.44
2017-11-12T19:51:51.516Z,100043.83
2017-11-12T19:54:19.853Z,100040.48
2017-11-12T19:56:48.231Z,100041.39
2017-11-12T19:59:16.845Z,100052.11
2017-11-12T20:01:45.225Z,100059.09
2017-11-12T20:04:13.632Z,100065.30
2017-11-12T20:06:42.015Z,100073.38
2017-11-12T20:09:10.411Z,100073.80
2017-11-12T20:11:38.764Z,100075.23
2017-11-12T20:14:07.150Z,100079.70
2017-11-12T20:16:35.484Z,100079.91
2017-11-12T20:19:03.884Z,100086.33
2017-11-12T20:21:32.707Z,100087.25
2017-11-12T20:24:01.082Z,100089.28
2017-11-12T20:26:29.469Z,100088.94
2017-11-12T20:28:58.049Z,100093.66
2017-11-12T20:31:26.452Z,100100.55
2017-11-12T20:33:54.814Z,100103.36
2017-11-12T20:36:23.193Z,100110.35
2017-11-12T20:38:51.542Z,100119.23
2017-11-12T20:41:19.916Z,100119.14
2017-11-12T20:43:49.523Z,100124.70
2017-11-12T20:46:18.662Z,100132.07
2017-11-12T20:48:47.032Z,100126.84
2017-11-12T20:51:16.186Z,100130.47
2017-11-12T20:53:45.343Z,100138.14
2017-11-12T20:56:13.834Z,100139.49
2017-11-12T20:58:43.016Z,100139.66
2017-11-12T21:01:13.159Z,100144.81
2017-11-12T21:03:41.513Z,100143.20
2017-11-12T21:06:09.960Z,100147.84
2017-11-12T21:08:38.341Z,100147.09
2017-11-12T21:11:06.705Z,100151.98
2017-11-12T21:13:35.850Z,100159.07
2017-11-12T21:16:04.212Z,100155.19
2017-11-12T21:18:32.599Z,100154.59
2017-11-12T21:21:00.978Z,100162.70
2017-11-12T21:23:29.326Z,100157.80
2017-11-12T21:25:57.703Z,100163.80
2017-11-12T21:28:26.237Z,100166.75
2017-11-12T21:30:57.889Z,100163.30
2017-11-12T21:33:41.138Z,100170.04
2017-11-12T21:36:09.535Z,100169.18
2017-11-12T21:38:37.915Z,100177.55
2017-11-12T21:41:06.369Z,100181.86
2017-11-12T21:43:34.770Z,100183.88
2017-11-12T21:46:03.197Z,100186.41
2017-11-12T21:48:31.716Z,100188.91
2017-11-12T21:51:00.056Z,100191.19
2017-11-12T21:53:28.449Z,100193.07
2017-11-12T21:55:56.831Z,100193.31
2017-11-12T21:58:25.195Z,100194.98
2017-11-12T22:00:53.604Z,100198.89
2017-11-12T22:03:22.015Z,100201.66
2017-11-12T22:05:51.184Z,100208.52
2017-11-12T22:08:19.562Z,100207.20
2017-11-12T22:10:48.116Z,100209.22
2017-11-12T22:13:16.489Z,100219.59
2017-11-12T22:15:44.880Z,100227.27
2017-11-12T22:18:13.304Z,100225.00
2017-11-12T22:20:41.683Z,100222.14
2017-11-12T22:23:10.030Z,100228.67
2017-11-12T22:25:38.424Z,100228.37
2017-11-12T22:28:06.768Z,100224.55
2017-11-12T22:30:35.879Z,100228.79
2017-11-12T22:33:05.223Z,100235.28
2017-11-12T22:35:33.742Z,100234.15
2017-11-12T22:38:02.077Z,100234.13
2017-11-12T22:40:30.453Z,100232.73
2017-11-12T22:42:58.817Z,100233.82
2017-11-12T22:45:27.160Z,100237.16
2017-11-12T22:47:55.549Z,100243.61
2017-11-12T22:50:23.932Z,100253.25
2017-11-12T22:52:52.288Z,100260.69
2017-11-12T22:55:20.736Z,100260.22
2017-11-12T22:57:49.102Z,100264.55
2017-11-12T23:00:17.456Z,100275.97
2017-11-12T23:02:45.855Z,100278.91
2017-11-12T23:05:14.227Z,100283.61
2017-11-12T23:07:43.351Z,100288.44
2017-11-12T23:10:11.730Z,100291.22
2017-11-12T23:12:40.092Z,100294.54
2017-11-12T23:15:08.488Z,100284.53
2017-11-12T23:17:37.087Z,100301.97
2017-11-12T23:20:05.477Z,100295.20
2017-11-12T23:22:34.614Z,100299.52
2017-11-12T23:25:03.048Z,100302.88
2017-11-12T23:27:32.167Z,100306.08
2017-11-12T23:30:00.527Z,100308.70
2017-11-12T23:32:29.657Z,100306.20
2017-11-12T23:34:58.046Z,100309.55
2017-11-12T23:37:26.384Z,100314.25
2017-11-12T23:39:54.823Z,100321.36
2017-11-12T23:42:23.210Z,100324.18
2017-11-12T23:44:51.596Z,100318.36
2017-11-12T23:47:19.966Z,100327.84
2017-11-12T23:49:48.314Z,100327.33
2017-11-12T23:52:16.675Z,100329.68
2017-11-12T23:54:45.033Z,100334.44
2017-11-12T23:57:13.391Z,100333.91
2017-11-12T23:59:41.742Z,100346.42
